createdAt,value
2022-12-04T00:01:20.024Z,7.07
2022-12-04T00:03:46.984Z,5.55
2022-12-04T00:06:18.812Z,6.18
2022-12-04T00:08:47.408Z,7.75
2022-12-04T00:11:16.478Z,6.57
2022-12-04T00:13:43.715Z,6.78
2022-12-04T00:16:13.752Z,8.40
2022-12-04T00:18:40.383Z,7.90
2022-12-04T00:21:10.826Z,8.68
2022-12-04T00:23:38.162Z,6.22
2022-12-04T00:26:11.701Z,7.47
2022-12-04T00:28:38.826Z,7.03
2022-12-04T00:31:27.254Z,8.70
2022-12-04T00:33:54.026Z,5.90
2022-12-04T00:36:23.413Z,7.32
2022-12-04T00:38:50.342Z,6.50
2022-12-04T00:41:19.552Z,7.47
2022-12-04T00:43:46.285Z,5.13
2022-12-04T00:46:13.182Z,6.10
2022-12-04T00:48:40.059Z,4.28
2022-12-04T00:51:10.162Z,6.10
2022-12-04T00:53:37.442Z,7.40
2022-12-04T00:56:09.361Z,4.85
2022-12-04T00:58:36.285Z,5.57
2022-12-04T01:01:08.028Z,6.50
2022-12-04T01:03:35.567Z,5.20
2022-12-04T01:06:03.370Z,7.97
2022-12-04T01:08:30.042Z,8.73
2022-12-04T01:10:57.458Z,7.97
2022-12-04T01:13:24.951Z,7.03
2022-12-04T01:15:52.534Z,4.93
2022-12-04T01:18:19.161Z,6.35
2022-12-04T01:20:48.624Z,4.88
2022-12-04T01:23:15.325Z,5.05
2022-12-04T01:25:58.628Z,7.50
2022-12-04T01:28:25.667Z,7.10
2022-12-04T01:31:10.553Z,7.03
2022-12-04T01:33:38.056Z,6.13
2022-12-04T01:36:07.284Z,5.30
2022-12-04T01:38:35.224Z,4.68
2022-12-04T01:41:02.247Z,5.97
2022-12-04T01:43:32.433Z,6.35
2022-12-04T01:46:00.520Z,6.70
2022-12-04T01:48:32.067Z,5.93
2022-12-04T01:51:05.479Z,4.70
2022-12-04T01:53:33.743Z,5.43
2022-12-04T01:56:00.680Z,4.95
2022-12-04T01:58:32.088Z,5.28
2022-12-04T02:01:08.454Z,6.10
2022-12-04T02:03:37.182Z,4.53
2022-12-04T02:06:04.456Z,6.68
2022-12-04T02:08:31.523Z,5.53
2022-12-04T02:11:09.631Z,6.25
2022-12-04T02:13:46.052Z,7.40
2022-12-04T02:16:23.834Z,4.10
2022-12-04T02:19:08.645Z,5.47
2022-12-04T02:21:38.019Z,4.72
2022-12-04T02:24:18.416Z,5.10
2022-12-04T02:26:53.749Z,5.45
2022-12-04T02:29:23.261Z,4.00
2022-12-04T02:32:09.730Z,4.32
2022-12-04T02:34:43.263Z,5.00
2022-12-04T02:37:16.037Z,5.40
2022-12-04T02:39:55.073Z,7.00
2022-12-04T02:42:30.829Z,4.28
2022-12-04T02:45:01.633Z,4.70
2022-12-04T02:47:28.295Z,5.03
2022-12-04T02:50:04.504Z,3.38
2022-12-04T02:52:41.949Z,6.38
2022-12-04T02:55:14.962Z,4.90
2022-12-04T02:57:45.565Z,6.40
2022-12-04T03:00:12.989Z,7.50
2022-12-04T03:03:00.084Z,4.25
2022-12-04T03:05:33.492Z,4.80
2022-12-04T03:08:04.671Z,6.25
2022-12-04T03:10:35.748Z,5.43
2022-12-04T03:13:10.165Z,7.28
2022-12-04T03:16:26.336Z,5.68
2022-12-04T03:19:07.245Z,6.22
2022-12-04T03:21:38.352Z,4.55
2022-12-04T03:24:18.631Z,3.92
2022-12-04T03:26:48.043Z,6.00
2022-12-04T03:29:23.973Z,4.70
2022-12-04T03:32:03.921Z,5.38
2022-12-04T03:34:51.118Z,6.05
2022-12-04T03:37:21.714Z,4.55
2022-12-04T03:39:57.883Z,3.55
2022-12-04T03:42:28.124Z,3.95
2022-12-04T03:45:01.893Z,6.50
2022-12-04T03:47:38.615Z,4.90
2022-12-04T03:50:14.164Z,5.65
2022-12-04T03:55:37.095Z,4.72
2022-12-04T03:58:08.336Z,4.38
2022-12-04T04:00:38.170Z,4.50
2022-12-04T04:03:10.594Z,4.05
2022-12-04T04:05:41.593Z,5.97
2022-12-04T04:08:27.949Z,5.00
2022-12-04T04:11:09.126Z,3.85
2022-12-04T04:14:03.145Z,5.88
2022-12-04T04:16:51.030Z,5.97
2022-12-04T04:19:38.293Z,5.03
2022-12-04T04:22:37.788Z,3.92
2022-12-04T04:25:08.093Z,5.13
2022-12-04T04:27:34.817Z,4.45
2022-12-04T04:30:01.550Z,4.32
2022-12-04T04:32:38.917Z,4.07
2022-12-04T04:35:24.509Z,5.18
2022-12-04T04:37:56.885Z,6.60
2022-12-04T04:40:36.206Z,3.85
2022-12-04T04:43:14.872Z,5.45
2022-12-04T04:45:45.916Z,5.93
2022-12-04T04:48:16.102Z,3.70
2022-12-04T04:50:43.514Z,5.70
2022-12-04T04:53:15.685Z,3.42
2022-12-04T04:55:43.761Z,4.20
2022-12-04T04:58:16.834Z,4.13
2022-12-04T05:00:55.084Z,3.75
2022-12-04T05:03:21.823Z,5.63
2022-12-04T05:05:49.090Z,3.88
2022-12-04T05:08:15.766Z,7.45
2022-12-04T05:10:42.581Z,4.72
2022-12-04T05:13:11.988Z,3.70
2022-12-04T05:15:38.759Z,4.25
2022-12-04T05:18:05.553Z,4.30
2022-12-04T05:20:32.569Z,3.67
2022-12-04T05:22:59.262Z,4.63
2022-12-04T05:25:26.537Z,4.78
2022-12-04T05:27:53.413Z,6.53
2022-12-04T05:30:20.433Z,6.28
2022-12-04T05:32:47.098Z,5.53
2022-12-04T05:35:13.849Z,4.60
2022-12-04T05:37:40.554Z,5.55
2022-12-04T05:40:08.434Z,7.05
2022-12-04T05:42:35.314Z,4.47
2022-12-04T05:45:01.948Z,5.82
2022-12-04T05:47:30.912Z,3.97
2022-12-04T05:49:58.375Z,5.38
2022-12-04T05:52:25.131Z,4.85
2022-12-04T05:54:51.850Z,3.28
2022-12-04T05:57:18.406Z,6.00
2022-12-04T05:59:44.998Z,5.70
2022-12-04T06:02:11.681Z,8.60
2022-12-04T06:04:38.487Z,6.20
2022-12-04T06:07:05.347Z,5.68
2022-12-04T06:09:33.687Z,4.57
2022-12-04T06:12:00.311Z,4.68
2022-12-04T06:14:26.958Z,4.35
2022-12-04T06:16:53.723Z,3.95
2022-12-04T06:19:21.899Z,4.53
2022-12-04T06:21:51.809Z,5.95
2022-12-04T06:24:22.231Z,5.32
2022-12-04T06:27:18.969Z,6.35
2022-12-04T06:29:36.760Z,8.25
2022-12-04T06:32:03.510Z,7.78
2022-12-04T06:34:30.314Z,4.03
2022-12-04T06:36:56.919Z,3.78
2022-12-04T06:39:24.535Z,3.17
2022-12-04T06:41:51.165Z,3.75
2022-12-04T06:44:17.863Z,4.90
2022-12-04T06:46:47.569Z,4.70
2022-12-04T06:49:14.781Z,3.80
2022-12-04T06:51:41.487Z,5.93
2022-12-04T06:54:09.678Z,4.88
2022-12-04T06:56:36.788Z,3.75
2022-12-04T06:59:04.436Z,5.53
2022-12-04T07:01:33.469Z,3.92
2022-12-04T07:04:01.997Z,4.05
2022-12-04T07:06:30.811Z,4.30
2022-12-04T07:09:02.747Z,5.30
2022-12-04T07:11:30.242Z,4.65
2022-12-04T07:13:57.261Z,4.75
2022-12-04T07:16:25.687Z,6.00
2022-12-04T07:18:56.427Z,6.25
2022-12-04T07:21:29.226Z,5.85
2022-12-04T07:24:01.073Z,4.80
2022-12-04T07:26:30.442Z,7.28
2022-12-04T07:28:58.218Z,6.15
2022-12-04T07:31:26.853Z,6.60
2022-12-04T07:33:55.098Z,6.05
2022-12-04T07:36:22.849Z,4.57
2022-12-04T07:38:49.970Z,7.65
2022-12-04T07:41:17.904Z,6.57
2022-12-04T07:43:45.261Z,6.13
2022-12-04T07:46:15.197Z,6.30
2022-12-04T07:48:42.847Z,6.18
2022-12-04T07:51:11.769Z,7.20
2022-12-04T07:53:38.725Z,5.90
2022-12-04T07:56:07.409Z,5.78
2022-12-04T07:58:34.500Z,6.78
2022-12-04T08:01:07.162Z,4.57
2022-12-04T08:03:33.849Z,6.65
2022-12-04T08:06:02.292Z,5.68
2022-12-04T08:08:29.048Z,5.50
2022-12-04T08:10:55.998Z,6.40
2022-12-04T08:13:22.607Z,7.05
2022-12-04T08:15:49.165Z,6.03
2022-12-04T08:18:15.783Z,6.65
2022-12-04T08:20:42.378Z,6.57
2022-12-04T08:23:08.984Z,5.85
2022-12-04T08:25:39.711Z,5.90
2022-12-04T08:28:06.937Z,7.05
2022-12-04T08:30:35.668Z,6.15
2022-12-04T08:33:03.005Z,292.15
2022-12-04T08:35:29.668Z,203.77
2022-12-04T08:37:56.294Z,149.45
2022-12-04T08:40:23.855Z,91.85
2022-12-04T08:42:50.651Z,103.38
2022-12-04T08:45:17.577Z,97.43
2022-12-04T08:47:49.219Z,83.93
2022-12-04T08:50:18.898Z,73.50
2022-12-04T08:52:46.046Z,71.40
2022-12-04T08:55:12.769Z,58.05
2022-12-04T08:57:39.331Z,54.85
2022-12-04T09:00:06.994Z,50.38
2022-12-04T09:02:33.683Z,45.20
2022-12-04T09:05:00.393Z,41.90
2022-12-04T09:07:27.460Z,42.15
2022-12-04T09:09:54.129Z,34.17
2022-12-04T09:12:20.682Z,31.70
2022-12-04T09:14:47.350Z,33.35
2022-12-04T09:17:13.932Z,25.48
2022-12-04T09:19:41.157Z,25.70
2022-12-04T09:22:07.764Z,23.42
2022-12-04T09:24:34.402Z,19.45
2022-12-04T09:27:01.380Z,17.83
2022-12-04T09:29:32.249Z,18.58
2022-12-04T09:31:58.860Z,10.63
2022-12-04T09:34:25.838Z,11.93
2022-12-04T09:36:52.835Z,10.20
2022-12-04T09:39:19.402Z,10.05
2022-12-04T09:42:05.333Z,11.70
2022-12-04T09:44:45.964Z,10.40
2022-12-04T09:47:22.861Z,13.07
2022-12-04T09:50:01.046Z,8.02
2022-12-04T09:53:01.417Z,9.85
2022-12-04T09:55:33.604Z,7.00
2022-12-04T09:58:02.720Z,8.55
2022-12-04T10:00:30.215Z,6.80
2022-12-04T10:03:01.837Z,7.82
2022-12-04T10:05:50.181Z,10.30
2022-12-04T10:08:40.658Z,10.48
2022-12-04T10:11:22.353Z,7.97
2022-12-04T10:14:00.898Z,8.55
2022-12-04T10:16:46.599Z,9.77
2022-12-04T10:22:07.704Z,8.02
2022-12-04T10:24:52.667Z,7.43
2022-12-04T10:27:28.538Z,5.80
2022-12-04T10:29:59.192Z,7.05
2022-12-04T10:32:29.680Z,7.60
2022-12-04T10:35:00.955Z,6.50
2022-12-04T10:37:27.829Z,8.18
2022-12-04T10:39:58.649Z,7.70
2022-12-04T10:42:31.524Z,7.82
2022-12-04T10:44:58.350Z,5.53
2022-12-04T10:47:25.526Z,7.63
2022-12-04T10:50:02.354Z,6.95
2022-12-04T10:52:29.193Z,9.05
2022-12-04T10:55:00.105Z,6.88
2022-12-04T10:57:37.807Z,9.95
2022-12-04T11:00:24.788Z,7.68
2022-12-04T11:02:52.788Z,5.35
2022-12-04T11:05:31.637Z,9.10
2022-12-04T11:08:00.282Z,8.25
2022-12-04T11:10:38.800Z,8.20
2022-12-04T11:13:14.932Z,10.15
2022-12-04T11:15:55.433Z,7.90
2022-12-04T11:18:27.239Z,7.13
2022-12-04T11:20:58.751Z,7.25
2022-12-04T11:23:26.968Z,12.27
2022-12-04T11:26:02.110Z,7.43
2022-12-04T11:28:47.884Z,8.73
2022-12-04T11:31:20.193Z,10.07
2022-12-04T11:33:53.511Z,11.88
2022-12-04T11:36:35.018Z,9.55
2022-12-04T11:39:15.414Z,8.00
2022-12-04T11:41:42.401Z,8.05
2022-12-04T11:44:25.366Z,7.38
2022-12-04T11:46:58.244Z,7.10
2022-12-04T11:49:26.601Z,8.18
2022-12-04T11:52:01.956Z,9.18
2022-12-04T11:54:32.632Z,8.60
2022-12-04T11:57:08.687Z,8.82
2022-12-04T12:00:09.447Z,9.23
2022-12-04T12:02:50.252Z,10.63
2022-12-04T12:05:53.682Z,14.35
2022-12-04T12:08:23.172Z,8.57
2022-12-04T12:10:55.694Z,8.68
2022-12-04T12:13:37.040Z,9.75
2022-12-04T12:16:18.390Z,8.15
2022-12-04T12:19:22.713Z,7.25
2022-12-04T12:22:19.126Z,8.43
2022-12-04T12:25:13.090Z,6.78
2022-12-04T12:27:53.511Z,7.18
2022-12-04T12:30:21.820Z,7.68
2022-12-04T12:33:20.316Z,7.03
2022-12-04T12:36:01.576Z,7.97
2022-12-04T12:38:34.779Z,9.73
2022-12-04T12:41:07.569Z,7.60
2022-12-04T12:43:37.300Z,7.82
2022-12-04T12:46:10.474Z,8.55
2022-12-04T12:49:06.832Z,7.32
2022-12-04T12:51:37.873Z,10.80
2022-12-04T12:54:41.390Z,7.10
2022-12-04T12:57:17.808Z,6.88
2022-12-04T13:00:28.902Z,7.93
2022-12-04T13:03:00.428Z,7.75
2022-12-04T13:05:41.266Z,6.47
2022-12-04T13:08:46.389Z,7.95
2022-12-04T13:11:18.535Z,7.63
2022-12-04T13:13:48.574Z,7.80
2022-12-04T13:16:21.115Z,10.88
2022-12-04T13:18:53.642Z,6.63
2022-12-04T13:21:30.103Z,7.50
2022-12-04T13:24:05.692Z,6.10
2022-12-04T13:26:52.629Z,7.53
2022-12-04T13:29:53.593Z,6.57
2022-12-04T13:32:49.627Z,8.82
2022-12-04T13:35:24.550Z,6.28
2022-12-04T13:38:08.901Z,5.43
2022-12-04T13:40:41.463Z,7.00
2022-12-04T13:43:33.554Z,6.80
2022-12-04T13:46:03.710Z,7.30
2022-12-04T13:48:37.690Z,6.53
2022-12-04T13:51:08.242Z,6.40
2022-12-04T13:53:37.664Z,5.90
2022-12-04T13:56:09.490Z,7.55
2022-12-04T13:58:38.082Z,7.60
2022-12-04T14:01:06.370Z,6.55
2022-12-04T14:03:35.876Z,6.32
2022-12-04T14:06:05.439Z,5.95
2022-12-04T14:08:39.096Z,5.90
2022-12-04T14:11:12.839Z,6.15
2022-12-04T14:13:42.374Z,7.10
2022-12-04T14:16:38.552Z,5.20
2022-12-04T14:19:06.626Z,8.82
2022-12-04T14:21:44.641Z,5.03
2022-12-04T14:24:29.718Z,5.80
2022-12-04T14:27:14.059Z,5.40
2022-12-04T14:29:53.709Z,6.32
2022-12-04T14:32:27.666Z,5.03
2022-12-04T14:34:55.052Z,6.20
2022-12-04T14:37:36.769Z,6.43
2022-12-04T14:40:07.631Z,4.68
2022-12-04T14:42:38.840Z,6.80
2022-12-04T14:45:28.749Z,6.13
2022-12-04T14:48:18.735Z,4.63
2022-12-04T14:51:12.766Z,4.03
2022-12-04T14:54:16.776Z,5.15
2022-12-04T14:57:04.350Z,6.10
2022-12-04T14:59:51.264Z,5.28
2022-12-04T15:02:20.404Z,5.90
2022-12-04T15:04:49.009Z,5.20
2022-12-04T15:07:20.933Z,7.45
2022-12-04T15:10:14.508Z,5.68
2022-12-04T15:13:01.359Z,5.35
2022-12-04T15:15:29.716Z,7.60
2022-12-04T15:17:58.179Z,4.85
2022-12-04T15:20:25.247Z,4.97
2022-12-04T15:22:53.948Z,6.13
2022-12-04T15:29:34.881Z,6.97
2022-12-04T15:32:05.859Z,6.45
2022-12-04T15:34:44.054Z,5.82
2022-12-04T15:37:20.533Z,6.13
2022-12-04T15:39:49.863Z,6.15
2022-12-04T15:42:21.776Z,4.93
2022-12-04T15:44:55.102Z,7.43
2022-12-04T15:47:23.986Z,6.97
2022-12-04T15:49:50.789Z,7.18
2022-12-04T15:52:19.848Z,7.90
2022-12-04T15:54:56.526Z,7.30
2022-12-04T15:57:35.756Z,8.50
2022-12-04T16:00:05.269Z,7.22
2022-12-04T16:02:34.349Z,8.48
2022-12-04T16:05:22.798Z,10.13
2022-12-04T16:07:53.025Z,6.35
2022-12-04T16:10:29.828Z,6.88
2022-12-04T16:12:59.068Z,6.38
2022-12-04T16:15:31.913Z,8.00
2022-12-04T16:17:59.786Z,6.53
2022-12-04T16:20:27.489Z,6.88
2022-12-04T16:22:54.771Z,6.00
2022-12-04T16:25:21.454Z,5.28
2022-12-04T16:27:59.137Z,5.65
2022-12-04T16:30:36.060Z,5.57
2022-12-04T16:33:02.840Z,8.02
2022-12-04T16:35:31.424Z,33.63
2022-12-04T16:37:59.047Z,24.42
2022-12-04T16:40:26.118Z,17.23
2022-12-04T16:42:52.970Z,19.38
2022-12-04T16:45:26.461Z,20.88
2022-12-04T16:47:53.420Z,14.77
2022-12-04T16:50:20.307Z,17.40
2022-12-04T16:52:47.265Z,14.82
2022-12-04T16:55:31.572Z,13.80
2022-12-04T16:57:58.706Z,12.93
2022-12-04T17:00:25.398Z,11.43
2022-12-04T17:02:53.090Z,14.55
2022-12-04T17:05:25.460Z,11.90
2022-12-04T17:07:52.584Z,11.07
2022-12-04T17:10:23.738Z,11.75
2022-12-04T17:12:54.666Z,10.55
2022-12-04T17:15:22.503Z,12.63
2022-12-04T17:17:49.132Z,10.63
2022-12-04T17:20:17.764Z,8.20
2022-12-04T17:22:44.670Z,9.63
2022-12-04T17:25:11.409Z,9.05
2022-12-04T17:27:38.630Z,9.63
2022-12-04T17:30:06.408Z,10.32
2022-12-04T17:32:34.835Z,9.02
2022-12-04T17:35:02.494Z,9.32
2022-12-04T17:37:31.887Z,6.97
2022-12-04T17:39:58.832Z,9.93
2022-12-04T17:42:25.717Z,10.48
2022-12-04T17:44:52.273Z,10.30
2022-12-04T17:47:20.593Z,12.10
2022-12-04T17:49:47.146Z,10.23
2022-12-04T17:52:13.713Z,10.35
2022-12-04T17:54:40.312Z,10.15
2022-12-04T17:57:07.354Z,8.73
2022-12-04T17:59:33.924Z,10.80
2022-12-04T18:02:00.509Z,9.27
2022-12-04T18:04:29.002Z,12.05
2022-12-04T18:06:56.420Z,8.82
2022-12-04T18:09:23.389Z,10.38
2022-12-04T18:11:50.046Z,8.98
2022-12-04T18:14:18.965Z,7.20
2022-12-04T18:16:48.184Z,9.07
2022-12-04T18:19:15.057Z,11.43
2022-12-04T18:21:42.162Z,9.55
2022-12-04T18:24:10.225Z,9.63
2022-12-04T18:26:39.473Z,8.38
2022-12-04T18:29:07.149Z,10.80
2022-12-04T18:31:34.036Z,7.40
2022-12-04T18:34:00.689Z,9.30
2022-12-04T18:36:31.852Z,7.85
2022-12-04T18:39:04.449Z,11.38
2022-12-04T18:41:31.491Z,9.82
2022-12-04T18:43:58.537Z,12.45
2022-12-04T18:46:26.099Z,12.75
2022-12-04T18:48:54.452Z,7.95
2022-12-04T18:51:39.306Z,8.00
2022-12-04T18:54:12.049Z,10.82
2022-12-04T18:56:38.964Z,10.25
2022-12-04T18:59:12.603Z,12.07
2022-12-04T19:01:40.224Z,7.45
2022-12-04T19:04:09.069Z,8.80
2022-12-04T19:06:47.312Z,8.55
2022-12-04T19:09:16.944Z,6.93
2022-12-04T19:11:44.138Z,6.65
2022-12-04T19:14:21.027Z,8.15
2022-12-04T19:16:50.304Z,6.13
2022-12-04T19:19:17.061Z,7.15
2022-12-04T19:21:44.352Z,6.78
2022-12-04T19:24:11.194Z,9.02
2022-12-04T19:26:38.148Z,6.53
2022-12-04T19:29:05.536Z,7.78
2022-12-04T19:31:34.191Z,9.10
2022-12-04T19:34:01.177Z,5.85
2022-12-04T19:36:30.331Z,7.78
2022-12-04T19:38:58.150Z,7.60
2022-12-04T19:41:28.149Z,6.43
2022-12-04T19:43:56.939Z,7.10
2022-12-04T19:46:26.903Z,9.32
2022-12-04T19:48:56.953Z,7.45
2022-12-04T19:51:24.513Z,7.60
2022-12-04T19:53:51.856Z,8.30
2022-12-04T19:56:24.470Z,9.63
2022-12-04T19:58:53.039Z,7.78
2022-12-04T20:01:21.305Z,9.57
2022-12-04T20:03:47.915Z,10.68
2022-12-04T20:06:17.950Z,16.98
2022-12-04T20:08:45.239Z,13.23
2022-12-04T20:11:17.797Z,26.05
2022-12-04T20:13:46.067Z,11.07
2022-12-04T20:16:16.224Z,11.05
2022-12-04T20:18:43.394Z,16.98
2022-12-04T20:21:13.245Z,12.52
2022-12-04T20:23:44.313Z,13.23
2022-12-04T20:26:12.847Z,15.63
2022-12-04T20:28:40.125Z,12.10
2022-12-04T20:31:20.080Z,11.05
2022-12-04T20:33:48.425Z,9.40
2022-12-04T20:36:18.812Z,6.82
2022-12-04T20:38:45.958Z,13.63
2022-12-04T20:41:15.856Z,11.27
2022-12-04T20:43:46.869Z,9.55
2022-12-04T20:46:15.070Z,8.77
2022-12-04T20:48:48.121Z,10.88
2022-12-04T20:51:17.312Z,9.57
2022-12-04T20:53:44.744Z,8.07
2022-12-04T20:56:11.794Z,6.90
2022-12-04T20:58:39.007Z,10.05
2022-12-04T21:01:10.785Z,8.88
2022-12-04T21:03:40.310Z,8.02
2022-12-04T21:06:35.819Z,7.53
2022-12-04T21:09:05.910Z,9.10
2022-12-04T21:11:35.726Z,8.32
2022-12-04T21:14:24.805Z,8.32
2022-12-04T21:16:52.193Z,7.35
2022-12-04T21:19:20.480Z,11.20
2022-12-04T21:21:47.512Z,8.45
2022-12-04T21:24:15.929Z,8.55
2022-12-04T21:26:43.159Z,7.32
2022-12-04T21:29:09.989Z,6.05
2022-12-04T21:31:39.358Z,7.22
2022-12-04T21:34:08.825Z,6.78
2022-12-04T21:36:35.942Z,6.65
2022-12-04T21:39:02.884Z,6.88
2022-12-04T21:41:47.825Z,9.13
2022-12-04T21:44:16.955Z,5.88
2022-12-04T21:46:44.301Z,8.32
2022-12-04T21:49:11.238Z,7.55
2022-12-04T21:51:56.865Z,7.07
2022-12-04T21:54:25.660Z,8.85
2022-12-04T21:56:52.550Z,8.25
2022-12-04T21:59:21.015Z,8.18
2022-12-04T22:01:47.633Z,8.48
2022-12-04T22:04:14.367Z,8.45
2022-12-04T22:06:40.961Z,16.38
2022-12-04T22:09:09.727Z,8.43
2022-12-04T22:11:36.845Z,7.45
2022-12-04T22:14:03.870Z,11.70
2022-12-04T22:16:32.842Z,8.70
2022-12-04T22:19:01.595Z,9.93
2022-12-04T22:21:29.596Z,8.52
2022-12-04T22:23:57.800Z,8.98
2022-12-04T22:26:24.784Z,8.95
2022-12-04T22:28:52.049Z,10.00
2022-12-04T22:31:21.000Z,8.75
2022-12-04T22:33:49.901Z,7.32
2022-12-04T22:36:19.224Z,8.20
2022-12-04T22:39:08.827Z,7.05
2022-12-04T22:41:32.661Z,9.65
2022-12-04T22:43:59.225Z,10.43
2022-12-04T22:46:26.992Z,7.22
2022-12-04T22:48:54.420Z,8.77
2022-12-04T22:51:23.819Z,7.13
2022-12-04T22:53:53.120Z,7.13
2022-12-04T22:56:27.903Z,5.82
2022-12-04T22:58:55.010Z,5.90
2022-12-04T23:01:24.477Z,6.82
2022-12-04T23:03:51.956Z,8.35
2022-12-04T23:06:20.999Z,6.20
2022-12-04T23:08:47.877Z,6.45
2022-12-04T23:11:18.943Z,7.70
2022-12-04T23:14:04.208Z,5.40
2022-12-04T23:16:33.158Z,8.82
2022-12-04T23:18:59.885Z,8.25
2022-12-04T23:21:27.472Z,7.80
2022-12-04T23:23:54.966Z,9.20
2022-12-04T23:26:24.732Z,8.10
2022-12-04T23:28:51.993Z,5.70
2022-12-04T23:31:19.005Z,7.43
2022-12-04T23:33:45.573Z,7.57
2022-12-04T23:36:13.007Z,6.70
2022-12-04T23:38:40.781Z,6.93
2022-12-04T23:41:11.298Z,11.93
2022-12-04T23:43:42.673Z,7.18
2022-12-04T23:46:11.696Z,6.53
2022-12-04T23:48:43.561Z,7.10
2022-12-04T23:51:11.757Z,6.32
2022-12-04T23:53:38.853Z,6.47
2022-12-04T23:56:18.667Z,7.65
2022-12-04T23:58:47.338Z,5.68
